sensor_id;sensor_type;location;lat;lon;timestamp;temperature;humidity
18105;DHT22;9179;50.968;3.134;2023-12-20T00:01:01;8.50;99.90
18105;DHT22;9179;50.968;3.134;2023-12-20T00:03:28;8.60;99.90
18105;DHT22;9179;50.968;3.134;2023-12-20T00:05:55;8.70;99.90
18105;DHT22;9179;50.968;3.134;2023-12-20T00:08:22;8.80;99.90
18105;DHT22;9179;50.968;3.134;2023-12-20T00:10:49;8.80;99.90
18105;DHT22;9179;50.968;3.134;2023-12-20T00:13:16;8.70;99.90
18105;DHT22;9179;50.968;3.134;2023-12-20T00:15:44;8.50;99.90
18105;DHT22;9179;50.968;3.134;2023-12-20T00:18:11;8.20;99.90
18105;DHT22;9179;50.968;3.134;2023-12-20T00:20:38;8.00;99.90
18105;DHT22;9179;50.968;3.134;2023-12-20T00:23:05;7.90;99.90
18105;DHT22;9179;50.968;3.134;2023-12-20T00:25:33;7.80;99.90
18105;DHT22;9179;50.968;3.134;2023-12-20T00:28:00;7.80;99.90
18105;DHT22;9179;50.968;3.134;2023-12-20T00:30:27;7.80;99.90
18105;DHT22;9179;50.968;3.134;2023-12-20T00:32:56;7.90;99.90
18105;DHT22;9179;50.968;3.134;2023-12-20T00:35:23;8.10;99.90
18105;DHT22;9179;50.968;3.134;2023-12-20T00:37:50;8.20;99.90
18105;DHT22;9179;50.968;3.134;2023-12-20T00:40:17;8.10;99.90
18105;DHT22;9179;50.968;3.134;2023-12-20T00:42:44;8.10;99.90
18105;DHT22;9179;50.968;3.134;2023-12-20T00:45:12;8.10;99.90
18105;DHT22;9179;50.968;3.134;2023-12-20T00:47:40;8.10;99.90
18105;DHT22;9179;50.968;3.134;2023-12-20T00:50:09;8.20;99.90
18105;DHT22;9179;50.968;3.134;2023-12-20T00:52:35;8.30;99.90
18105;DHT22;9179;50.968;3.134;2023-12-20T00:55:03;8.50;99.90
18105;DHT22;9179;50.968;3.134;2023-12-20T00:57:30;8.60;99.90
18105;DHT22;9179;50.968;3.134;2023-12-20T00:59:57;8.70;99.90
18105;DHT22;9179;50.968;3.134;2023-12-20T01:02:24;8.70;99.90
18105;DHT22;9179;50.968;3.134;2023-12-20T01:04:51;8.70;99.90
18105;DHT22;9179;50.968;3.134;2023-12-20T01:07:20;8.70;99.90
18105;DHT22;9179;50.968;3.134;2023-12-20T01:09:47;8.70;99.90
18105;DHT22;9179;50.968;3.134;2023-12-20T01:12:13;8.70;99.90
18105;DHT22;9179;50.968;3.134;2023-12-20T01:14:40;8.80;99.90
18105;DHT22;9179;50.968;3.134;2023-12-20T01:17:07;8.80;99.90
18105;DHT22;9179;50.968;3.134;2023-12-20T01:19:35;8.80;99.90
18105;DHT22;9179;50.968;3.134;2023-12-20T01:22:02;8.70;99.90
18105;DHT22;9179;50.968;3.134;2023-12-20T01:24:30;8.50;99.90
18105;DHT22;9179;50.968;3.134;2023-12-20T01:26:57;8.20;99.90
18105;DHT22;9179;50.968;3.134;2023-12-20T01:29:24;8.00;99.90
18105;DHT22;9179;50.968;3.134;2023-12-20T01:31:51;7.80;99.90
18105;DHT22;9179;50.968;3.134;2023-12-20T01:34:18;7.60;99.90
18105;DHT22;9179;50.968;3.134;2023-12-20T01:36:45;7.50;99.90
18105;DHT22;9179;50.968;3.134;2023-12-20T01:39:12;7.40;99.90
18105;DHT22;9179;50.968;3.134;2023-12-20T01:41:40;7.30;99.90
18105;DHT22;9179;50.968;3.134;2023-12-20T01:44:07;7.30;99.90
18105;DHT22;9179;50.968;3.134;2023-12-20T01:46:34;7.30;99.90
18105;DHT22;9179;50.968;3.134;2023-12-20T01:49:01;7.20;99.90
18105;DHT22;9179;50.968;3.134;2023-12-20T01:51:29;7.10;99.90
18105;DHT22;9179;50.968;3.134;2023-12-20T01:53:58;7.20;99.90
18105;DHT22;9179;50.968;3.134;2023-12-20T01:56:26;7.20;99.90
18105;DHT22;9179;50.968;3.134;2023-12-20T01:58:55;7.30;99.90
18105;DHT22;9179;50.968;3.134;2023-12-20T02:01:22;7.30;99.90
18105;DHT22;9179;50.968;3.134;2023-12-20T02:03:50;7.40;99.90
18105;DHT22;9179;50.968;3.134;2023-12-20T02:06:18;7.50;99.90
18105;DHT22;9179;50.968;3.134;2023-12-20T02:08:45;7.50;99.90
18105;DHT22;9179;50.968;3.134;2023-12-20T02:11:12;7.60;99.90
18105;DHT22;9179;50.968;3.134;2023-12-20T02:13:39;7.70;99.90
18105;DHT22;9179;50.968;3.134;2023-12-20T02:16:07;7.70;99.90
18105;DHT22;9179;50.968;3.134;2023-12-20T02:18:34;7.60;99.90
18105;DHT22;9179;50.968;3.134;2023-12-20T02:21:04;7.50;99.90
18105;DHT22;9179;50.968;3.134;2023-12-20T02:23:32;7.30;99.90
18105;DHT22;9179;50.968;3.134;2023-12-20T02:25:59;7.20;99.90
18105;DHT22;9179;50.968;3.134;2023-12-20T02:28:26;7.10;99.90
18105;DHT22;9179;50.968;3.134;2023-12-20T02:30:54;6.90;99.90
18105;DHT22;9179;50.968;3.134;2023-12-20T02:33:21;6.90;99.90
18105;DHT22;9179;50.968;3.134;2023-12-20T02:35:48;6.80;99.90
18105;DHT22;9179;50.968;3.134;2023-12-20T02:38:15;6.90;99.90
18105;DHT22;9179;50.968;3.134;2023-12-20T02:40:44;6.90;99.90
18105;DHT22;9179;50.968;3.134;2023-12-20T02:43:11;6.90;99.90
18105;DHT22;9179;50.968;3.134;2023-12-20T02:45:37;6.80;99.90
18105;DHT22;9179;50.968;3.134;2023-12-20T02:48:05;6.70;99.90
18105;DHT22;9179;50.968;3.134;2023-12-20T02:50:32;6.60;99.90
18105;DHT22;9179;50.968;3.134;2023-12-20T02:52:59;6.50;99.90
18105;DHT22;9179;50.968;3.134;2023-12-20T02:55:25;6.50;99.90
18105;DHT22;9179;50.968;3.134;2023-12-20T02:57:54;6.40;99.90
18105;DHT22;9179;50.968;3.134;2023-12-20T03:00:21;6.30;99.90
18105;DHT22;9179;50.968;3.134;2023-12-20T03:02:48;6.20;99.90
18105;DHT22;9179;50.968;3.134;2023-12-20T03:05:15;6.20;99.90
18105;DHT22;9179;50.968;3.134;2023-12-20T03:07:41;6.20;99.90
18105;DHT22;9179;50.968;3.134;2023-12-20T03:10:09;6.10;99.90
18105;DHT22;9179;50.968;3.134;2023-12-20T03:12:36;6.10;99.90
18105;DHT22;9179;50.968;3.134;2023-12-20T03:15:04;6.10;99.90
18105;DHT22;9179;50.968;3.134;2023-12-20T03:17:31;6.00;99.90
18105;DHT22;9179;50.968;3.134;2023-12-20T03:19:58;6.00;99.90
18105;DHT22;9179;50.968;3.134;2023-12-20T03:22:25;6.00;99.90
18105;DHT22;9179;50.968;3.134;2023-12-20T03:24:52;6.10;99.90
18105;DHT22;9179;50.968;3.134;2023-12-20T03:27:19;6.10;99.90
18105;DHT22;9179;50.968;3.134;2023-12-20T03:29:46;6.20;99.90
18105;DHT22;9179;50.968;3.134;2023-12-20T03:32:14;6.30;99.90
18105;DHT22;9179;50.968;3.134;2023-12-20T03:34:41;6.30;99.90
18105;DHT22;9179;50.968;3.134;2023-12-20T03:37:08;6.40;99.90
18105;DHT22;9179;50.968;3.134;2023-12-20T03:39:35;6.50;99.90
18105;DHT22;9179;50.968;3.134;2023-12-20T03:42:02;6.50;99.90
18105;DHT22;9179;50.968;3.134;2023-12-20T03:44:29;6.50;99.90
18105;DHT22;9179;50.968;3.134;2023-12-20T03:46:56;6.60;99.90
18105;DHT22;9179;50.968;3.134;2023-12-20T03:49:24;6.60;99.90
18105;DHT22;9179;50.968;3.134;2023-12-20T03:51:51;6.60;99.90
18105;DHT22;9179;50.968;3.134;2023-12-20T03:54:18;6.70;99.90
18105;DHT22;9179;50.968;3.134;2023-12-20T03:56:45;6.70;99.90
18105;DHT22;9179;50.968;3.134;2023-12-20T03:59:12;6.60;99.90
18105;DHT22;9179;50.968;3.134;2023-12-20T04:01:43;6.60;99.90
18105;DHT22;9179;50.968;3.134;2023-12-20T04:04:10;6.60;99.90
18105;DHT22;9179;50.968;3.134;2023-12-20T04:06:38;6.50;99.90
18105;DHT22;9179;50.968;3.134;2023-12-20T04:09:05;6.50;99.90
18105;DHT22;9179;50.968;3.134;2023-12-20T04:11:34;6.50;99.90
18105;DHT22;9179;50.968;3.134;2023-12-20T04:14:01;6.50;99.90
18105;DHT22;9179;50.968;3.134;2023-12-20T04:16:28;6.50;99.90
18105;DHT22;9179;50.968;3.134;2023-12-20T04:18:55;6.50;99.90
18105;DHT22;9179;50.968;3.134;2023-12-20T04:21:22;6.50;99.90
18105;DHT22;9179;50.968;3.134;2023-12-20T04:23:50;6.50;99.90
18105;DHT22;9179;50.968;3.134;2023-12-20T04:26:17;6.50;99.90
18105;DHT22;9179;50.968;3.134;2023-12-20T04:28:44;6.50;99.90
18105;DHT22;9179;50.968;3.134;2023-12-20T04:31:11;6.50;99.90
18105;DHT22;9179;50.968;3.134;2023-12-20T04:33:38;6.50;99.90
18105;DHT22;9179;50.968;3.134;2023-12-20T04:36:05;6.50;99.90
18105;DHT22;9179;50.968;3.134;2023-12-20T04:38:32;6.50;99.90
18105;DHT22;9179;50.968;3.134;2023-12-20T04:41:00;6.50;99.90
18105;DHT22;9179;50.968;3.134;2023-12-20T04:43:27;6.50;99.90
18105;DHT22;9179;50.968;3.134;2023-12-20T04:45:55;6.40;99.90
18105;DHT22;9179;50.968;3.134;2023-12-20T04:48:22;6.40;99.90
18105;DHT22;9179;50.968;3.134;2023-12-20T04:50:49;6.50;99.90
18105;DHT22;9179;50.968;3.134;2023-12-20T04:53:16;6.50;99.90
18105;DHT22;9179;50.968;3.134;2023-12-20T04:55:43;6.50;99.90
18105;DHT22;9179;50.968;3.134;2023-12-20T04:58:11;6.40;99.90
18105;DHT22;9179;50.968;3.134;2023-12-20T05:00:38;6.40;99.90
18105;DHT22;9179;50.968;3.134;2023-12-20T05:03:05;6.40;99.90
18105;DHT22;9179;50.968;3.134;2023-12-20T05:05:33;6.40;99.90
18105;DHT22;9179;50.968;3.134;2023-12-20T05:08:00;6.40;99.90
18105;DHT22;9179;50.968;3.134;2023-12-20T05:10:27;6.40;99.90
18105;DHT22;9179;50.968;3.134;2023-12-20T05:12:54;6.50;99.90
18105;DHT22;9179;50.968;3.134;2023-12-20T05:15:22;6.50;99.90
18105;DHT22;9179;50.968;3.134;2023-12-20T05:17:49;6.50;99.90
18105;DHT22;9179;50.968;3.134;2023-12-20T05:20:16;6.50;99.90
18105;DHT22;9179;50.968;3.134;2023-12-20T05:22:43;6.50;99.90
18105;DHT22;9179;50.968;3.134;2023-12-20T05:25:10;6.70;99.90
18105;DHT22;9179;50.968;3.134;2023-12-20T05:27:37;6.90;99.90
18105;DHT22;9179;50.968;3.134;2023-12-20T05:30:05;7.10;99.90
18105;DHT22;9179;50.968;3.134;2023-12-20T05:32:33;7.30;99.90
18105;DHT22;9179;50.968;3.134;2023-12-20T05:35:00;7.30;99.90
18105;DHT22;9179;50.968;3.134;2023-12-20T05:37:28;7.10;99.90
18105;DHT22;9179;50.968;3.134;2023-12-20T05:39:55;7.00;99.90
18105;DHT22;9179;50.968;3.134;2023-12-20T05:42:22;6.80;99.90
18105;DHT22;9179;50.968;3.134;2023-12-20T05:44:49;6.70;99.90
18105;DHT22;9179;50.968;3.134;2023-12-20T05:47:16;6.70;99.90
18105;DHT22;9179;50.968;3.134;2023-12-20T05:49:45;6.60;99.90
18105;DHT22;9179;50.968;3.134;2023-12-20T05:52:12;6.50;99.90
18105;DHT22;9179;50.968;3.134;2023-12-20T05:54:39;6.40;99.90
18105;DHT22;9179;50.968;3.134;2023-12-20T05:57:06;6.40;99.90
18105;DHT22;9179;50.968;3.134;2023-12-20T05:59:32;6.30;99.90
18105;DHT22;9179;50.968;3.134;2023-12-20T06:01:59;6.30;99.90
18105;DHT22;9179;50.968;3.134;2023-12-20T06:04:26;6.20;99.90
18105;DHT22;9179;50.968;3.134;2023-12-20T06:06:54;6.20;99.90
18105;DHT22;9179;50.968;3.134;2023-12-20T06:09:21;6.20;99.90
18105;DHT22;9179;50.968;3.134;2023-12-20T06:11:49;6.20;99.90
18105;DHT22;9179;50.968;3.134;2023-12-20T06:14:16;6.20;99.90
18105;DHT22;9179;50.968;3.134;2023-12-20T06:16:43;6.20;99.90
18105;DHT22;9179;50.968;3.134;2023-12-20T06:19:10;6.20;99.90
18105;DHT22;9179;50.968;3.134;2023-12-20T06:21:37;6.20;99.90
18105;DHT22;9179;50.968;3.134;2023-12-20T06:24:06;6.20;99.90
18105;DHT22;9179;50.968;3.134;2023-12-20T06:26:33;6.10;99.90
18105;DHT22;9179;50.968;3.134;2023-12-20T06:29:00;6.20;99.90
18105;DHT22;9179;50.968;3.134;2023-12-20T06:31:26;6.20;99.90
18105;DHT22;9179;50.968;3.134;2023-12-20T06:33:53;6.20;99.90
18105;DHT22;9179;50.968;3.134;2023-12-20T06:36:23;6.20;99.90
18105;DHT22;9179;50.968;3.134;2023-12-20T06:38:50;6.30;99.90
18105;DHT22;9179;50.968;3.134;2023-12-20T06:41:19;6.30;99.90
18105;DHT22;9179;50.968;3.134;2023-12-20T06:43:46;6.30;99.90
18105;DHT22;9179;50.968;3.134;2023-12-20T06:46:13;6.30;99.90
18105;DHT22;9179;50.968;3.134;2023-12-20T06:48:40;6.30;99.90
18105;DHT22;9179;50.968;3.134;2023-12-20T06:51:10;6.30;99.90
18105;DHT22;9179;50.968;3.134;2023-12-20T06:53:37;6.30;99.90
18105;DHT22;9179;50.968;3.134;2023-12-20T06:56:05;6.30;99.90
18105;DHT22;9179;50.968;3.134;2023-12-20T06:58:34;6.30;99.90
18105;DHT22;9179;50.968;3.134;2023-12-20T07:01:02;6.30;99.90
18105;DHT22;9179;50.968;3.134;2023-12-20T07:03:30;6.30;99.90
18105;DHT22;9179;50.968;3.134;2023-12-20T07:05:56;6.30;99.90
18105;DHT22;9179;50.968;3.134;2023-12-20T07:08:23;6.40;99.90
18105;DHT22;9179;50.968;3.134;2023-12-20T07:10:50;6.40;99.90
18105;DHT22;9179;50.968;3.134;2023-12-20T07:13:17;6.40;99.90
18105;DHT22;9179;50.968;3.134;2023-12-20T07:15:45;6.40;99.90
18105;DHT22;9179;50.968;3.134;2023-12-20T07:18:12;6.40;99.90
18105;DHT22;9179;50.968;3.134;2023-12-20T07:20:38;6.40;99.90
18105;DHT22;9179;50.968;3.134;2023-12-20T07:23:05;6.40;99.90
18105;DHT22;9179;50.968;3.134;2023-12-20T07:25:32;6.40;99.90
18105;DHT22;9179;50.968;3.134;2023-12-20T07:27:59;6.40;99.90
18105;DHT22;9179;50.968;3.134;2023-12-20T07:30:26;6.30;99.90
18105;DHT22;9179;50.968;3.134;2023-12-20T07:32:54;6.30;99.90
18105;DHT22;9179;50.968;3.134;2023-12-20T07:35:22;6.30;99.90
18105;DHT22;9179;50.968;3.134;2023-12-20T07:37:50;6.30;99.90
18105;DHT22;9179;50.968;3.134;2023-12-20T07:40:17;6.40;99.90
18105;DHT22;9179;50.968;3.134;2023-12-20T07:42:44;6.40;99.90
18105;DHT22;9179;50.968;3.134;2023-12-20T07:45:11;6.40;99.90
18105;DHT22;9179;50.968;3.134;2023-12-20T07:47:38;6.40;99.90
18105;DHT22;9179;50.968;3.134;2023-12-20T07:50:08;6.40;99.90
18105;DHT22;9179;50.968;3.134;2023-12-20T07:52:35;6.50;99.90
18105;DHT22;9179;50.968;3.134;2023-12-20T07:55:02;6.50;99.90
18105;DHT22;9179;50.968;3.134;2023-12-20T07:57:29;6.50;99.90
18105;DHT22;9179;50.968;3.134;2023-12-20T07:59:56;6.50;99.90
18105;DHT22;9179;50.968;3.134;2023-12-20T08:02:23;6.60;99.90
18105;DHT22;9179;50.968;3.134;2023-12-20T08:04:50;6.60;99.90
18105;DHT22;9179;50.968;3.134;2023-12-20T08:07:18;6.70;99.90
18105;DHT22;9179;50.968;3.134;2023-12-20T08:09:45;6.90;99.90
18105;DHT22;9179;50.968;3.134;2023-12-20T08:12:12;7.10;99.90
18105;DHT22;9179;50.968;3.134;2023-12-20T08:14:39;7.30;99.90
18105;DHT22;9179;50.968;3.134;2023-12-20T08:17:06;7.40;99.90
18105;DHT22;9179;50.968;3.134;2023-12-20T08:19:33;7.30;99.90
18105;DHT22;9179;50.968;3.134;2023-12-20T08:22:00;7.30;99.90
18105;DHT22;9179;50.968;3.134;2023-12-20T08:24:28;7.60;99.90
18105;DHT22;9179;50.968;3.134;2023-12-20T08:26:56;7.80;99.90
18105;DHT22;9179;50.968;3.134;2023-12-20T08:29:23;8.00;99.90
18105;DHT22;9179;50.968;3.134;2023-12-20T08:31:52;8.20;99.90
18105;DHT22;9179;50.968;3.134;2023-12-20T08:34:19;8.40;99.90
18105;DHT22;9179;50.968;3.134;2023-12-20T08:36:47;8.60;99.90
18105;DHT22;9179;50.968;3.134;2023-12-20T08:39:13;8.70;99.90
18105;DHT22;9179;50.968;3.134;2023-12-20T08:41:42;8.90;99.90
18105;DHT22;9179;50.968;3.134;2023-12-20T08:44:09;8.90;99.90
18105;DHT22;9179;50.968;3.134;2023-12-20T08:46:36;9.00;99.90
18105;DHT22;9179;50.968;3.134;2023-12-20T08:49:03;9.10;99.90
18105;DHT22;9179;50.968;3.134;2023-12-20T08:51:30;9.20;99.90
18105;DHT22;9179;50.968;3.134;2023-12-20T08:53:57;9.20;99.90
18105;DHT22;9179;50.968;3.134;2023-12-20T08:56:24;9.30;99.90
18105;DHT22;9179;50.968;3.134;2023-12-20T08:58:52;9.20;99.90
18105;DHT22;9179;50.968;3.134;2023-12-20T09:01:19;9.00;99.90
18105;DHT22;9179;50.968;3.134;2023-12-20T09:03:46;8.90;99.90
18105;DHT22;9179;50.968;3.134;2023-12-20T09:06:13;8.70;99.90
18105;DHT22;9179;50.968;3.134;2023-12-20T09:08:41;8.70;99.90
18105;DHT22;9179;50.968;3.134;2023-12-20T09:11:08;8.80;99.90
18105;DHT22;9179;50.968;3.134;2023-12-20T09:13:35;9.00;99.90
18105;DHT22;9179;50.968;3.134;2023-12-20T09:16:03;9.20;99.90
18105;DHT22;9179;50.968;3.134;2023-12-20T09:18:30;9.50;99.90
18105;DHT22;9179;50.968;3.134;2023-12-20T09:20:57;9.70;99.90
18105;DHT22;9179;50.968;3.134;2023-12-20T09:23:24;9.90;99.90
18105;DHT22;9179;50.968;3.134;2023-12-20T09:25:51;9.90;99.90
18105;DHT22;9179;50.968;3.134;2023-12-20T09:28:18;10.00;99.90
18105;DHT22;9179;50.968;3.134;2023-12-20T09:30:45;10.10;99.90
18105;DHT22;9179;50.968;3.134;2023-12-20T09:33:14;10.20;99.90
18105;DHT22;9179;50.968;3.134;2023-12-20T09:35:41;10.10;99.90
18105;DHT22;9179;50.968;3.134;2023-12-20T09:38:09;10.10;99.90
18105;DHT22;9179;50.968;3.134;2023-12-20T09:40:36;10.20;99.90
18105;DHT22;9179;50.968;3.134;2023-12-20T09:43:10;10.20;99.90
18105;DHT22;9179;50.968;3.134;2023-12-20T09:45:39;10.30;99.90
18105;DHT22;9179;50.968;3.134;2023-12-20T09:48:07;10.40;99.90
18105;DHT22;9179;50.968;3.134;2023-12-20T09:50:37;10.40;99.90
18105;DHT22;9179;50.968;3.134;2023-12-20T09:53:05;10.40;99.90
18105;DHT22;9179;50.968;3.134;2023-12-20T09:55:36;10.50;99.90
18105;DHT22;9179;50.968;3.134;2023-12-20T09:58:03;10.60;99.90
18105;DHT22;9179;50.968;3.134;2023-12-20T10:00:31;10.70;99.90
18105;DHT22;9179;50.968;3.134;2023-12-20T10:02:59;10.80;99.90
18105;DHT22;9179;50.968;3.134;2023-12-20T10:05:28;10.90;99.90
18105;DHT22;9179;50.968;3.134;2023-12-20T10:07:56;10.90;99.90
18105;DHT22;9179;50.968;3.134;2023-12-20T10:10:24;11.00;99.90
18105;DHT22;9179;50.968;3.134;2023-12-20T10:13:04;11.00;99.90
18105;DHT22;9179;50.968;3.134;2023-12-20T10:15:32;11.20;99.90
18105;DHT22;9179;50.968;3.134;2023-12-20T10:17:59;11.30;99.90
18105;DHT22;9179;50.968;3.134;2023-12-20T10:20:27;11.40;99.90
18105;DHT22;9179;50.968;3.134;2023-12-20T10:22:56;11.40;99.90
18105;DHT22;9179;50.968;3.134;2023-12-20T10:25:24;11.50;99.90
18105;DHT22;9179;50.968;3.134;2023-12-20T10:28:08;11.40;99.90
18105;DHT22;9179;50.968;3.134;2023-12-20T10:30:36;11.40;99.90
18105;DHT22;9179;50.968;3.134;2023-12-20T10:33:03;11.50;99.90
18105;DHT22;9179;50.968;3.134;2023-12-20T10:35:31;11.60;99.90
18105;DHT22;9179;50.968;3.134;2023-12-20T10:38:03;11.50;99.90
18105;DHT22;9179;50.968;3.134;2023-12-20T10:40:30;11.60;99.90
18105;DHT22;9179;50.968;3.134;2023-12-20T10:42:58;11.70;99.90
18105;DHT22;9179;50.968;3.134;2023-12-20T10:45:26;11.80;99.90
18105;DHT22;9179;50.968;3.134;2023-12-20T10:47:53;11.80;99.90
18105;DHT22;9179;50.968;3.134;2023-12-20T10:50:20;12.00;99.90
18105;DHT22;9179;50.968;3.134;2023-12-20T10:52:47;12.00;99.90
18105;DHT22;9179;50.968;3.134;2023-12-20T10:55:16;12.00;99.90
18105;DHT22;9179;50.968;3.134;2023-12-20T10:57:45;11.90;99.90
18105;DHT22;9179;50.968;3.134;2023-12-20T11:00:18;11.70;99.90
18105;DHT22;9179;50.968;3.134;2023-12-20T11:02:45;11.80;99.90
18105;DHT22;9179;50.968;3.134;2023-12-20T11:05:22;11.80;99.90
18105;DHT22;9179;50.968;3.134;2023-12-20T11:07:54;11.70;99.90
18105;DHT22;9179;50.968;3.134;2023-12-20T11:10:31;11.50;99.90
18105;DHT22;9179;50.968;3.134;2023-12-20T11:13:03;11.50;99.90
18105;DHT22;9179;50.968;3.134;2023-12-20T11:15:35;11.60;99.90
18105;DHT22;9179;50.968;3.134;2023-12-20T11:18:04;11.80;99.90
18105;DHT22;9179;50.968;3.134;2023-12-20T11:20:36;11.90;99.90
18105;DHT22;9179;50.968;3.134;2023-12-20T11:23:04;11.80;99.90
18105;DHT22;9179;50.968;3.134;2023-12-20T11:25:46;11.80;99.90
18105;DHT22;9179;50.968;3.134;2023-12-20T11:28:13;11.80;99.90
18105;DHT22;9179;50.968;3.134;2023-12-20T11:30:41;11.90;99.90
18105;DHT22;9179;50.968;3.134;2023-12-20T11:33:09;12.30;99.90
18105;DHT22;9179;50.968;3.134;2023-12-20T11:35:36;12.40;99.90
18105;DHT22;9179;50.968;3.134;2023-12-20T11:38:07;12.50;99.90
18105;DHT22;9179;50.968;3.134;2023-12-20T11:40:35;12.60;99.90
18105;DHT22;9179;50.968;3.134;2023-12-20T11:43:03;12.70;99.90
18105;DHT22;9179;50.968;3.134;2023-12-20T11:45:30;12.80;99.90
18105;DHT22;9179;50.968;3.134;2023-12-20T11:47:58;12.80;99.90
18105;DHT22;9179;50.968;3.134;2023-12-20T11:50:25;12.90;99.90
18105;DHT22;9179;50.968;3.134;2023-12-20T11:52:53;12.90;99.90
18105;DHT22;9179;50.968;3.134;2023-12-20T11:55:21;12.80;99.90
18105;DHT22;9179;50.968;3.134;2023-12-20T11:57:50;12.70;99.90
18105;DHT22;9179;50.968;3.134;2023-12-20T12:00:18;12.70;99.90
18105;DHT22;9179;50.968;3.134;2023-12-20T12:02:55;12.70;99.90
18105;DHT22;9179;50.968;3.134;2023-12-20T12:05:22;12.90;99.90
18105;DHT22;9179;50.968;3.134;2023-12-20T12:07:49;13.00;99.90
18105;DHT22;9179;50.968;3.134;2023-12-20T12:10:16;13.00;99.90
18105;DHT22;9179;50.968;3.134;2023-12-20T12:12:43;13.00;99.90
18105;DHT22;9179;50.968;3.134;2023-12-20T12:15:12;13.00;99.90
18105;DHT22;9179;50.968;3.134;2023-12-20T12:17:39;12.90;99.90
18105;DHT22;9179;50.968;3.134;2023-12-20T12:20:07;12.80;99.90
18105;DHT22;9179;50.968;3.134;2023-12-20T12:22:35;12.60;99.90
18105;DHT22;9179;50.968;3.134;2023-12-20T12:25:10;12.40;99.90
18105;DHT22;9179;50.968;3.134;2023-12-20T12:27:39;12.20;99.90
18105;DHT22;9179;50.968;3.134;2023-12-20T12:30:07;12.00;99.90
18105;DHT22;9179;50.968;3.134;2023-12-20T12:32:36;11.80;99.90
18105;DHT22;9179;50.968;3.134;2023-12-20T12:35:03;11.80;99.90
18105;DHT22;9179;50.968;3.134;2023-12-20T12:37:33;11.80;99.90
18105;DHT22;9179;50.968;3.134;2023-12-20T12:40:00;11.80;99.90
18105;DHT22;9179;50.968;3.134;2023-12-20T12:42:28;11.90;99.90
18105;DHT22;9179;50.968;3.134;2023-12-20T12:44:55;11.90;99.90
18105;DHT22;9179;50.968;3.134;2023-12-20T12:47:22;12.20;99.90
18105;DHT22;9179;50.968;3.134;2023-12-20T12:49:52;12.60;99.90
18105;DHT22;9179;50.968;3.134;2023-12-20T12:52:19;12.90;99.90
18105;DHT22;9179;50.968;3.134;2023-12-20T12:54:46;13.20;99.90
18105;DHT22;9179;50.968;3.134;2023-12-20T12:57:14;13.30;99.90
18105;DHT22;9179;50.968;3.134;2023-12-20T12:59:41;13.50;99.90
18105;DHT22;9179;50.968;3.134;2023-12-20T13:02:09;13.50;99.90
18105;DHT22;9179;50.968;3.134;2023-12-20T13:04:36;13.50;99.90
18105;DHT22;9179;50.968;3.134;2023-12-20T13:07:04;13.60;99.90
18105;DHT22;9179;50.968;3.134;2023-12-20T13:09:31;13.50;99.90
18105;DHT22;9179;50.968;3.134;2023-12-20T13:11:58;13.50;99.90
18105;DHT22;9179;50.968;3.134;2023-12-20T13:14:28;13.60;99.90
18105;DHT22;9179;50.968;3.134;2023-12-20T13:16:57;13.40;99.90
18105;DHT22;9179;50.968;3.134;2023-12-20T13:19:24;13.30;99.90
18105;DHT22;9179;50.968;3.134;2023-12-20T13:21:51;13.20;99.90
18105;DHT22;9179;50.968;3.134;2023-12-20T13:24:19;13.20;99.90
18105;DHT22;9179;50.968;3.134;2023-12-20T13:26:46;13.10;99.90
18105;DHT22;9179;50.968;3.134;2023-12-20T13:29:13;13.10;99.90
18105;DHT22;9179;50.968;3.134;2023-12-20T13:31:40;13.10;99.90
18105;DHT22;9179;50.968;3.134;2023-12-20T13:34:07;13.00;99.90
18105;DHT22;9179;50.968;3.134;2023-12-20T13:36:34;12.90;99.90
18105;DHT22;9179;50.968;3.134;2023-12-20T13:39:02;12.90;99.90
18105;DHT22;9179;50.968;3.134;2023-12-20T13:41:31;12.80;99.90
18105;DHT22;9179;50.968;3.134;2023-12-20T13:43:58;12.80;99.90
18105;DHT22;9179;50.968;3.134;2023-12-20T13:46:27;12.60;99.90
18105;DHT22;9179;50.968;3.134;2023-12-20T13:48:54;12.50;99.90
18105;DHT22;9179;50.968;3.134;2023-12-20T13:51:21;12.40;99.90
18105;DHT22;9179;50.968;3.134;2023-12-20T13:53:48;12.40;99.90
18105;DHT22;9179;50.968;3.134;2023-12-20T13:56:15;12.50;99.90
18105;DHT22;9179;50.968;3.134;2023-12-20T13:58:43;12.50;99.90
18105;DHT22;9179;50.968;3.134;2023-12-20T14:01:12;12.60;99.90
18105;DHT22;9179;50.968;3.134;2023-12-20T14:03:39;12.60;99.90
18105;DHT22;9179;50.968;3.134;2023-12-20T14:06:06;12.50;99.90
18105;DHT22;9179;50.968;3.134;2023-12-20T14:08:33;12.40;99.90
18105;DHT22;9179;50.968;3.134;2023-12-20T14:11:01;12.40;99.90
18105;DHT22;9179;50.968;3.134;2023-12-20T14:13:28;12.50;99.90
18105;DHT22;9179;50.968;3.134;2023-12-20T14:15:56;12.50;99.90
18105;DHT22;9179;50.968;3.134;2023-12-20T14:18:26;12.50;99.90
18105;DHT22;9179;50.968;3.134;2023-12-20T14:20:53;12.50;99.90
18105;DHT22;9179;50.968;3.134;2023-12-20T14:23:20;12.60;99.90
18105;DHT22;9179;50.968;3.134;2023-12-20T14:25:48;12.50;99.90
18105;DHT22;9179;50.968;3.134;2023-12-20T14:28:15;12.40;99.90
18105;DHT22;9179;50.968;3.134;2023-12-20T14:30:42;12.40;99.90
18105;DHT22;9179;50.968;3.134;2023-12-20T14:33:10;12.30;99.90
18105;DHT22;9179;50.968;3.134;2023-12-20T14:35:37;12.30;99.90
18105;DHT22;9179;50.968;3.134;2023-12-20T14:38:04;12.20;99.90
18105;DHT22;9179;50.968;3.134;2023-12-20T14:40:31;12.20;99.90
18105;DHT22;9179;50.968;3.134;2023-12-20T14:42:58;12.10;99.90
18105;DHT22;9179;50.968;3.134;2023-12-20T14:45:25;12.00;99.90
18105;DHT22;9179;50.968;3.134;2023-12-20T14:47:53;11.90;99.90
18105;DHT22;9179;50.968;3.134;2023-12-20T14:50:22;11.80;99.90
18105;DHT22;9179;50.968;3.134;2023-12-20T14:52:49;11.80;99.90
18105;DHT22;9179;50.968;3.134;2023-12-20T14:55:18;11.80;99.90
18105;DHT22;9179;50.968;3.134;2023-12-20T14:57:46;11.80;99.90
18105;DHT22;9179;50.968;3.134;2023-12-20T15:00:15;11.80;99.90
18105;DHT22;9179;50.968;3.134;2023-12-20T15:02:42;11.70;99.90
18105;DHT22;9179;50.968;3.134;2023-12-20T15:05:19;11.70;99.90
18105;DHT22;9179;50.968;3.134;2023-12-20T15:07:47;11.70;99.90
18105;DHT22;9179;50.968;3.134;2023-12-20T15:10:14;11.70;99.90
18105;DHT22;9179;50.968;3.134;2023-12-20T15:12:42;11.60;99.90
18105;DHT22;9179;50.968;3.134;2023-12-20T15:15:10;11.60;99.90
18105;DHT22;9179;50.968;3.134;2023-12-20T15:17:37;11.60;99.90
18105;DHT22;9179;50.968;3.134;2023-12-20T15:20:05;11.60;99.90
18105;DHT22;9179;50.968;3.134;2023-12-20T15:22:32;11.60;99.90
18105;DHT22;9179;50.968;3.134;2023-12-20T15:25:02;11.60;99.90
18105;DHT22;9179;50.968;3.134;2023-12-20T15:27:30;11.50;99.90
18105;DHT22;9179;50.968;3.134;2023-12-20T15:29:58;11.50;99.90
18105;DHT22;9179;50.968;3.134;2023-12-20T15:32:25;11.50;99.90
18105;DHT22;9179;50.968;3.134;2023-12-20T15:34:52;11.40;99.90
18105;DHT22;9179;50.968;3.134;2023-12-20T15:37:19;11.40;99.90
18105;DHT22;9179;50.968;3.134;2023-12-20T15:39:46;11.40;99.90
18105;DHT22;9179;50.968;3.134;2023-12-20T15:42:14;11.40;99.90
18105;DHT22;9179;50.968;3.134;2023-12-20T15:44:41;11.30;99.90
18105;DHT22;9179;50.968;3.134;2023-12-20T15:47:08;11.30;99.90
18105;DHT22;9179;50.968;3.134;2023-12-20T15:49:35;11.40;99.90
18105;DHT22;9179;50.968;3.134;2023-12-20T15:52:02;11.40;99.90
18105;DHT22;9179;50.968;3.134;2023-12-20T15:54:29;11.30;99.90
18105;DHT22;9179;50.968;3.134;2023-12-20T15:56:56;11.30;99.90